createdAt,value
2022-11-26T00:02:31.252Z,92403.63
2022-11-26T00:05:04.374Z,92418.47
2022-11-26T00:07:37.452Z,92404.19
2022-11-26T00:10:18.743Z,92404.19
2022-11-26T00:12:51.384Z,92399.31
2022-11-26T00:15:26.046Z,92407.22
2022-11-26T00:17:58.454Z,92377.31
2022-11-26T00:20:31.382Z,92395.72
2022-11-26T00:23:04.628Z,92399.75
2022-11-26T00:25:40.343Z,92396.72
2022-11-26T00:28:26.215Z,92395.97
2022-11-26T00:31:01.304Z,92400.41
2022-11-26T00:33:33.942Z,92394.28
2022-11-26T00:36:15.237Z,92395.50
2022-11-26T00:38:53.567Z,92408.88
2022-11-26T00:41:31.100Z,92418.06
2022-11-26T00:44:04.075Z,92414.81
2022-11-26T00:46:36.411Z,92423.28
2022-11-26T00:49:08.781Z,92420.38
2022-11-26T00:51:41.322Z,92430.75
2022-11-26T00:54:18.104Z,92432.78
2022-11-26T00:56:50.528Z,92428.63
2022-11-26T00:59:23.262Z,92425.63
2022-11-26T01:01:55.687Z,92426.97
2022-11-26T01:04:28.204Z,92432.44
2022-11-26T01:07:00.694Z,92440.66
2022-11-26T01:09:33.777Z,92444.25
2022-11-26T01:12:11.524Z,92448.03
2022-11-26T01:14:44.286Z,92448.69
2022-11-26T01:17:16.640Z,92451.69
2022-11-26T01:19:48.997Z,92459.97
2022-11-26T01:22:23.175Z,92450.34
2022-11-26T01:24:56.221Z,92454.13
2022-11-26T01:27:28.611Z,92464.41
2022-11-26T01:30:00.966Z,92458.50
2022-11-26T01:32:33.318Z,92464.97
2022-11-26T01:35:06.506Z,92454.38
2022-11-26T01:37:39.188Z,92457.50
2022-11-26T01:40:38.634Z,92458.28
2022-11-26T01:43:16.905Z,92467.16
2022-11-26T01:45:49.335Z,92464.03
2022-11-26T01:48:28.206Z,92467.94
2022-11-26T01:51:03.589Z,92459.69
2022-11-26T01:53:52.217Z,92461.13
2022-11-26T01:56:32.551Z,92463.13
2022-11-26T01:59:09.610Z,92466.91
2022-11-26T02:01:42.082Z,92460.56
2022-11-26T02:04:17.369Z,92460.34
2022-11-26T02:06:51.273Z,92459.44
2022-11-26T02:09:26.101Z,92458.22
2022-11-26T02:11:59.214Z,92455.22
2022-11-26T02:14:35.465Z,92449.19
2022-11-26T02:17:16.110Z,92450.97
2022-11-26T02:20:24.401Z,92453.31
2022-11-26T02:23:35.124Z,92443.06
2022-11-26T02:26:32.887Z,92441.38
2022-11-26T02:29:14.609Z,92444.69
2022-11-26T02:31:52.668Z,92437.69
2022-11-26T02:34:37.192Z,92437.00
2022-11-26T02:37:15.890Z,92437.34
2022-11-26T02:39:48.329Z,92437.59
2022-11-26T02:42:28.025Z,92440.31
2022-11-26T02:45:04.166Z,92443.00
2022-11-26T02:47:40.712Z,92444.69
2022-11-26T02:50:18.262Z,92443.00
2022-11-26T02:52:52.831Z,92438.97
2022-11-26T02:55:28.871Z,92439.97
2022-11-26T02:58:01.692Z,92439.41
2022-11-26T03:00:36.564Z,92443.84
2022-11-26T03:03:21.678Z,92445.06
2022-11-26T03:05:56.739Z,92451.97
2022-11-26T03:08:31.222Z,92440.81
2022-11-26T03:11:04.403Z,92461.34
2022-11-26T03:13:36.867Z,92464.78
2022-11-26T03:16:09.284Z,92459.88
2022-11-26T03:18:42.413Z,92461.22
2022-11-26T03:21:14.777Z,92467.56
2022-11-26T03:23:47.199Z,92470.63
2022-11-26T03:26:19.565Z,92470.38
2022-11-26T03:28:51.997Z,92477.63
2022-11-26T03:31:24.373Z,92486.88
2022-11-26T03:33:57.429Z,92495.00
2022-11-26T03:36:29.816Z,92486.88
2022-11-26T03:39:02.185Z,92488.66
2022-11-26T03:41:34.548Z,92490.88
2022-11-26T03:44:06.906Z,92480.97
2022-11-26T03:46:39.329Z,92493.19
2022-11-26T03:49:12.381Z,92502.09
2022-11-26T03:51:44.762Z,92503.75
2022-11-26T03:54:17.148Z,92499.28
2022-11-26T03:56:49.532Z,92497.47
2022-11-26T03:59:21.942Z,92503.94
2022-11-26T04:01:54.355Z,92502.38
2022-11-26T04:04:27.607Z,92512.84
2022-11-26T04:07:00.849Z,92512.63
2022-11-26T04:09:33.316Z,92516.19
2022-11-26T04:12:06.071Z,92518.16
2022-11-26T04:14:38.726Z,92516.19
2022-11-26T04:17:11.727Z,92527.66
2022-11-26T04:19:44.713Z,92531.56
2022-11-26T04:22:17.112Z,92526.44
2022-11-26T04:24:49.470Z,92532.13
2022-11-26T04:27:21.848Z,92530.34
2022-11-26T04:29:54.408Z,92536.44
2022-11-26T04:32:26.780Z,92538.03
2022-11-26T04:34:59.843Z,92532.91
2022-11-26T04:37:32.214Z,92533.53
2022-11-26T04:40:05.824Z,92536.88
2022-11-26T04:42:38.205Z,92543.63
2022-11-26T04:45:11.326Z,92545.56
2022-11-26T04:47:43.705Z,92555.00
2022-11-26T04:50:16.859Z,92556.00
2022-11-26T04:52:49.212Z,92558.00
2022-11-26T04:55:21.582Z,92563.13
2022-11-26T04:57:54.330Z,92555.66
2022-11-26T05:00:26.884Z,92554.84
2022-11-26T05:02:59.309Z,92553.84
2022-11-26T05:05:32.386Z,92555.53
2022-11-26T05:08:05.161Z,92557.69
2022-11-26T05:10:37.635Z,92548.06
2022-11-26T05:13:10.273Z,92564.22
2022-11-26T05:15:42.621Z,92556.19
2022-11-26T05:18:15.028Z,92556.00
2022-11-26T05:20:48.080Z,92558.00
2022-11-26T05:23:20.467Z,92569.19
2022-11-26T05:25:52.942Z,92572.94
2022-11-26T05:28:25.345Z,92568.03
2022-11-26T05:30:58.792Z,92553.50
2022-11-26T05:33:31.593Z,92573.28
2022-11-26T05:36:05.198Z,92572.31
2022-11-26T05:38:37.641Z,92570.97
2022-11-26T05:41:10.025Z,92575.28
2022-11-26T05:43:42.420Z,92580.78
2022-11-26T05:46:16.286Z,92576.75
2022-11-26T05:48:48.816Z,92581.72
2022-11-26T05:51:21.904Z,92579.00
2022-11-26T05:53:54.192Z,92574.59
2022-11-26T05:56:26.588Z,92581.66
2022-11-26T05:58:58.889Z,92583.00
2022-11-26T06:01:31.326Z,92590.16
2022-11-26T06:04:03.990Z,92590.38
2022-11-26T06:06:37.129Z,92587.59
2022-11-26T06:09:09.472Z,92581.28
2022-11-26T06:11:41.937Z,92582.84
2022-11-26T06:14:14.378Z,92585.47
2022-11-26T06:16:46.951Z,92588.66
2022-11-26T06:19:19.495Z,92597.91
2022-11-26T06:21:52.616Z,92594.16
2022-11-26T06:24:25.010Z,92602.38
2022-11-26T06:26:57.451Z,92605.94
2022-11-26T06:29:29.799Z,92599.63
2022-11-26T06:32:02.338Z,92602.19
2022-11-26T06:34:34.710Z,92607.50
2022-11-26T06:37:07.760Z,92598.84
2022-11-26T06:39:40.102Z,92611.06
2022-11-26T06:42:12.516Z,92606.72
2022-11-26T06:44:45.795Z,92599.63
2022-11-26T06:47:18.171Z,92598.59
2022-11-26T06:49:50.675Z,92604.16
2022-11-26T06:52:23.720Z,92611.41
2022-11-26T06:54:56.084Z,92598.72
2022-11-26T06:57:28.490Z,92605.97
2022-11-26T07:00:01.164Z,92605.13
2022-11-26T07:02:33.668Z,92607.00
2022-11-26T07:05:06.449Z,92608.72
2022-11-26T07:07:40.093Z,92608.28
2022-11-26T07:10:12.523Z,92608.44
2022-11-26T07:12:44.975Z,92607.75
2022-11-26T07:15:17.451Z,92609.44
2022-11-26T07:17:49.873Z,92613.84
2022-11-26T07:20:22.229Z,92606.44
2022-11-26T07:22:55.263Z,92610.84
2022-11-26T07:25:27.608Z,92607.56
2022-11-26T07:28:00.051Z,92606.16
2022-11-26T07:30:32.379Z,92609.78
2022-11-26T07:33:04.844Z,92607.78
2022-11-26T07:35:37.771Z,92611.19
2022-11-26T07:38:10.748Z,92605.75
2022-11-26T07:40:43.158Z,92616.84
2022-11-26T07:43:15.553Z,92620.47
2022-11-26T07:45:47.969Z,92625.63
2022-11-26T07:48:20.371Z,92629.25
2022-11-26T07:50:52.777Z,92634.06
2022-11-26T07:53:27.910Z,92638.22
2022-11-26T07:56:03.080Z,92636.13
2022-11-26T07:58:35.421Z,92640.59
2022-11-26T08:01:09.124Z,92641.06
2022-11-26T08:03:43.497Z,92646.97
2022-11-26T08:06:17.654Z,92637.81
2022-11-26T08:08:51.157Z,92645.84
2022-11-26T08:11:27.671Z,92644.06
2022-11-26T08:14:02.308Z,92642.38
2022-11-26T08:16:34.863Z,92638.63
2022-11-26T08:19:11.084Z,92631.91
2022-11-26T08:21:43.468Z,92635.44
2022-11-26T08:24:17.961Z,92637.41
2022-11-26T08:26:50.383Z,92643.91
2022-11-26T08:29:22.702Z,92633.75
2022-11-26T08:31:54.995Z,92638.44
2022-11-26T08:34:27.350Z,92638.72
2022-11-26T08:36:59.727Z,92635.53
2022-11-26T08:39:32.913Z,92637.25
2022-11-26T08:42:05.345Z,92639.28
2022-11-26T08:44:38.043Z,92635.63
2022-11-26T08:47:10.643Z,92646.38
2022-11-26T08:49:42.981Z,92643.34
2022-11-26T08:52:15.505Z,92650.44
2022-11-26T08:54:48.798Z,92646.06
2022-11-26T08:57:21.425Z,92644.91
2022-11-26T08:59:54.454Z,92653.19
2022-11-26T09:02:26.946Z,92647.88
2022-11-26T09:04:59.251Z,92649.91
2022-11-26T09:07:31.672Z,92647.63
2022-11-26T09:10:06.438Z,92652.38
2022-11-26T09:12:38.855Z,92649.34
2022-11-26T09:15:11.292Z,92650.19
2022-11-26T09:17:43.659Z,92652.84
2022-11-26T09:20:16.152Z,92651.88
2022-11-26T09:22:48.494Z,92657.06
2022-11-26T09:25:21.510Z,92657.66
2022-11-26T09:27:53.801Z,92659.88
2022-11-26T09:30:26.136Z,92666.53
2022-11-26T09:32:58.512Z,92661.06
2022-11-26T09:35:31.139Z,92655.00
2022-11-26T09:38:03.497Z,92661.41
2022-11-26T09:40:46.154Z,92643.41
2022-11-26T09:43:27.939Z,92644.22
2022-11-26T09:46:01.010Z,92646.75
2022-11-26T09:48:33.963Z,92647.59
2022-11-26T09:51:12.505Z,92649.47
2022-11-26T09:53:46.998Z,92644.13
2022-11-26T09:56:24.322Z,92626.06
2022-11-26T09:59:00.964Z,92636.47
2022-11-26T10:01:34.319Z,92624.31
2022-11-26T10:04:07.245Z,92627.16
2022-11-26T10:06:47.064Z,92622.75
2022-11-26T10:09:36.888Z,92619.41
2022-11-26T10:12:25.813Z,92617.56
2022-11-26T10:15:03.117Z,92618.88
2022-11-26T10:17:42.171Z,92621.97
2022-11-26T10:20:49.394Z,92626.38
2022-11-26T10:23:28.826Z,92619.13
2022-11-26T10:26:11.339Z,92618.34
2022-11-26T10:28:47.029Z,92616.00
2022-11-26T10:31:21.769Z,92613.88
2022-11-26T10:33:56.949Z,92610.94
2022-11-26T10:36:35.167Z,92617.91
2022-11-26T10:39:12.371Z,92614.72
2022-11-26T10:41:45.071Z,92608.41
2022-11-26T10:44:33.156Z,92613.03
2022-11-26T10:47:30.225Z,92618.25
2022-11-26T10:50:45.995Z,92619.56
2022-11-26T10:53:19.956Z,92606.09
2022-11-26T10:55:53.494Z,92616.25
2022-11-26T10:58:29.698Z,92620.13
2022-11-26T11:01:03.846Z,92616.72
2022-11-26T11:06:40.390Z,92621.44
2022-11-26T11:09:31.572Z,92620.41
2022-11-26T11:12:22.146Z,92622.16
2022-11-26T11:14:54.595Z,92627.09
2022-11-26T11:17:32.780Z,92628.09
2022-11-26T11:20:29.211Z,92625.22
2022-11-26T11:23:06.089Z,92628.16
2022-11-26T11:25:41.234Z,92623.47
2022-11-26T11:28:18.319Z,92631.50
2022-11-26T11:31:00.167Z,92623.97
2022-11-26T11:33:33.316Z,92622.63
2022-11-26T11:36:16.650Z,92627.34
2022-11-26T11:38:50.990Z,92621.59
2022-11-26T11:41:35.339Z,92615.56
2022-11-26T11:44:16.315Z,92620.16
2022-11-26T11:47:01.258Z,92609.06
2022-11-26T11:49:50.348Z,92609.00
2022-11-26T11:52:34.456Z,92609.25
2022-11-26T11:55:19.329Z,92604.63
2022-11-26T11:58:15.743Z,92611.50
2022-11-26T12:00:56.339Z,92607.91
2022-11-26T12:03:49.711Z,92613.25
2022-11-26T12:06:35.967Z,92610.34
2022-11-26T12:09:18.966Z,92609.09
2022-11-26T12:11:57.650Z,92609.31
2022-11-26T12:14:35.990Z,92604.56
2022-11-26T12:17:15.871Z,92599.53
2022-11-26T12:19:54.392Z,92598.84
2022-11-26T12:22:32.818Z,92602.56
2022-11-26T12:25:15.723Z,92597.16
2022-11-26T12:27:54.640Z,92601.06
2022-11-26T12:30:36.583Z,92597.94
2022-11-26T12:33:16.486Z,92597.13
2022-11-26T12:35:53.251Z,92595.31
2022-11-26T12:38:29.962Z,92595.56
2022-11-26T12:41:07.392Z,92595.97
2022-11-26T12:43:52.879Z,92589.91
2022-11-26T12:46:30.869Z,92594.13
2022-11-26T12:49:12.645Z,92593.41
2022-11-26T12:51:53.964Z,92589.81
2022-11-26T12:54:33.399Z,92587.53
2022-11-26T12:57:15.179Z,92587.84
2022-11-26T12:59:54.939Z,92597.38
2022-11-26T13:02:30.228Z,92594.84
2022-11-26T13:05:03.110Z,92601.84
2022-11-26T13:07:52.544Z,92607.06
2022-11-26T13:10:34.076Z,92609.97
2022-11-26T13:13:17.492Z,92605.84
2022-11-26T13:16:06.449Z,92600.91
2022-11-26T13:18:43.164Z,92602.72
2022-11-26T13:21:30.614Z,92607.41
2022-11-26T13:24:25.265Z,92603.28
2022-11-26T13:27:11.985Z,92603.50
2022-11-26T13:30:05.088Z,92603.78
2022-11-26T13:33:14.172Z,92615.47
2022-11-26T13:36:11.904Z,92612.09
2022-11-26T13:38:56.515Z,92619.06
2022-11-26T13:41:59.091Z,92616.47
2022-11-26T13:45:12.249Z,92620.41
2022-11-26T13:47:50.202Z,92615.44
2022-11-26T13:50:29.214Z,92616.25
2022-11-26T13:53:05.925Z,92614.69
2022-11-26T13:55:43.976Z,92609.72
2022-11-26T13:58:20.733Z,92615.69
2022-11-26T14:00:53.894Z,92607.63
2022-11-26T14:03:44.140Z,92598.84
2022-11-26T14:06:16.519Z,92609.50
2022-11-26T14:08:50.562Z,92627.19
2022-11-26T14:11:56.053Z,92622.50
2022-11-26T14:14:37.127Z,92631.56
2022-11-26T14:17:21.774Z,92630.03
2022-11-26T14:20:01.486Z,92631.06
2022-11-26T14:22:36.558Z,92630.28
2022-11-26T14:25:12.210Z,92630.03
2022-11-26T14:27:52.834Z,92641.44
2022-11-26T14:30:27.278Z,92643.78
2022-11-26T14:33:14.089Z,92648.72
2022-11-26T14:35:54.262Z,92644.84
2022-11-26T14:38:30.785Z,92644.56
2022-11-26T14:41:03.130Z,92641.97
2022-11-26T14:43:35.457Z,92645.59
2022-11-26T14:46:13.497Z,92645.84
2022-11-26T14:48:48.391Z,92640.63
2022-11-26T14:51:24.298Z,92639.09
2022-11-26T14:53:58.457Z,92639.56
2022-11-26T14:56:31.252Z,92649.41
2022-11-26T14:59:05.522Z,92648.63
2022-11-26T15:01:43.951Z,92653.50
2022-11-26T15:04:24.507Z,92655.28
2022-11-26T15:06:57.944Z,92657.28
2022-11-26T15:09:30.329Z,92655.44
2022-11-26T15:12:09.937Z,92651.72
2022-11-26T15:14:45.966Z,92654.22
2022-11-26T15:17:20.625Z,92660.03
2022-11-26T15:19:56.986Z,92655.34
2022-11-26T15:22:33.739Z,92662.81
2022-11-26T15:25:14.404Z,92663.72
2022-11-26T15:27:58.180Z,92652.75
2022-11-26T15:30:32.327Z,92652.94
2022-11-26T15:33:13.163Z,92652.63
2022-11-26T15:35:46.522Z,92661.88
2022-11-26T15:38:20.163Z,92660.00
2022-11-26T15:40:54.894Z,92658.16
2022-11-26T15:43:31.946Z,92670.50
2022-11-26T15:46:12.292Z,92672.41
2022-11-26T15:48:52.874Z,92669.19
2022-11-26T15:51:35.141Z,92668.88
2022-11-26T15:54:20.056Z,92669.78
2022-11-26T15:56:54.993Z,92670.97
2022-11-26T15:59:30.077Z,92673.75
2022-11-26T16:02:13.509Z,92669.78
2022-11-26T16:04:49.399Z,92660.88
2022-11-26T16:07:24.352Z,92669.28
2022-11-26T16:10:19.420Z,92674.63
2022-11-26T16:13:17.168Z,92667.69
2022-11-26T16:15:55.779Z,92677.41
2022-11-26T16:18:34.664Z,92676.94
2022-11-26T16:21:14.154Z,92680.69
2022-11-26T16:23:53.166Z,92673.19
2022-11-26T16:26:26.095Z,92676.72
2022-11-26T16:28:58.381Z,92674.59
2022-11-26T16:31:31.635Z,92680.56
2022-11-26T16:34:09.226Z,92686.34
2022-11-26T16:36:43.133Z,92689.03
2022-11-26T16:39:17.189Z,92698.31
2022-11-26T16:41:49.474Z,92693.25
2022-11-26T16:44:21.874Z,92695.59
2022-11-26T16:46:54.314Z,92703.97
2022-11-26T16:49:29.338Z,92698.25
2022-11-26T16:52:01.598Z,92698.81
2022-11-26T16:54:34.570Z,92707.88
2022-11-26T16:57:13.967Z,92704.50
2022-11-26T16:59:50.598Z,92716.63
2022-11-26T17:02:24.083Z,92712.88
2022-11-26T17:04:56.473Z,92714.66
2022-11-26T17:07:38.616Z,92717.25
2022-11-26T17:10:14.540Z,92714.19
2022-11-26T17:12:47.050Z,92718.66
2022-11-26T17:15:19.427Z,92727.16
2022-11-26T17:18:01.779Z,92724.38
2022-11-26T17:20:34.090Z,92721.56
2022-11-26T17:23:06.411Z,92723.91
2022-11-26T17:25:39.431Z,92721.03
2022-11-26T17:28:12.683Z,92731.09
2022-11-26T17:30:45.300Z,92726.94
2022-11-26T17:33:18.479Z,92732.09
2022-11-26T17:35:50.956Z,92733.25
2022-11-26T17:38:23.306Z,92733.75
2022-11-26T17:40:56.308Z,92738.66
2022-11-26T17:43:28.652Z,92741.25
2022-11-26T17:46:01.740Z,92748.19
2022-11-26T17:48:34.082Z,92754.38
2022-11-26T17:51:06.549Z,92758.72
2022-11-26T17:53:38.879Z,92765.31
2022-11-26T17:56:17.780Z,92757.63
2022-11-26T17:58:50.458Z,92773.88
2022-11-26T18:01:22.849Z,92763.78
2022-11-26T18:03:55.265Z,92771.53
2022-11-26T18:06:38.150Z,92765.81
2022-11-26T18:09:10.482Z,92768.94
2022-11-26T18:11:45.867Z,92767.59
2022-11-26T18:14:18.693Z,92768.19
2022-11-26T18:16:51.720Z,92773.09
2022-11-26T18:19:24.102Z,92773.00
2022-11-26T18:21:56.822Z,92775.25
2022-11-26T18:24:30.446Z,92776.34
2022-11-26T18:27:03.696Z,92785.34
2022-11-26T18:29:36.123Z,92782.66
2022-11-26T18:32:08.438Z,92780.09
2022-11-26T18:34:41.040Z,92785.50
2022-11-26T18:37:13.362Z,92788.38
2022-11-26T18:39:45.833Z,92786.94
2022-11-26T18:45:14.225Z,92786.41
2022-11-26T18:47:46.578Z,92792.22
2022-11-26T18:50:19.297Z,92782.50
2022-11-26T18:52:51.667Z,92789.66
2022-11-26T18:55:23.972Z,92781.16
2022-11-26T18:57:57.106Z,92787.31
2022-11-26T19:00:29.446Z,92784.97
2022-11-26T19:03:01.834Z,92785.97
2022-11-26T19:05:34.164Z,92791.13
2022-11-26T19:08:06.890Z,92784.66
2022-11-26T19:10:39.620Z,92786.22
2022-11-26T19:13:12.909Z,92788.13
2022-11-26T19:15:46.031Z,92791.47
2022-11-26T19:18:18.325Z,92796.63
2022-11-26T19:20:52.317Z,92790.94
2022-11-26T19:23:28.010Z,92795.88
2022-11-26T19:26:04.559Z,92791.63
2022-11-26T19:28:37.567Z,92789.59
2022-11-26T19:31:11.682Z,92792.63
2022-11-26T19:33:46.738Z,92795.88
2022-11-26T19:36:19.765Z,92790.28
2022-11-26T19:38:54.924Z,92780.00
2022-11-26T19:41:28.328Z,92800.50
2022-11-26T19:44:03.348Z,92800.59
2022-11-26T19:46:37.439Z,92794.56
2022-11-26T19:49:12.110Z,92795.56
2022-11-26T19:51:44.617Z,92795.13
2022-11-26T19:54:17.444Z,92793.00
2022-11-26T19:56:49.773Z,92794.78
2022-11-26T19:59:22.781Z,92799.25
2022-11-26T20:01:55.174Z,92799.94
2022-11-26T20:04:28.916Z,92797.16
2022-11-26T20:07:01.354Z,92801.72
2022-11-26T20:09:33.951Z,92800.97
2022-11-26T20:12:06.613Z,92803.97
2022-11-26T20:14:39.634Z,92810.81
2022-11-26T20:17:12.039Z,92805.44
2022-11-26T20:19:45.181Z,92805.22
2022-11-26T20:22:18.213Z,92807.56
2022-11-26T20:24:50.638Z,92811.25
2022-11-26T20:27:23.447Z,92815.53
2022-11-26T20:29:56.426Z,92805.66
2022-11-26T20:32:28.732Z,92797.41
2022-11-26T20:35:01.085Z,92808.47
2022-11-26T20:37:33.411Z,92808.56
2022-11-26T20:40:07.086Z,92805.31
2022-11-26T20:42:40.149Z,92802.53
2022-11-26T20:45:13.586Z,92803.75
2022-11-26T20:47:45.887Z,92793.47
2022-11-26T20:50:18.360Z,92800.84
2022-11-26T20:52:50.700Z,92794.69
2022-11-26T20:55:24.422Z,92799.09
2022-11-26T20:57:56.780Z,92802.22
2022-11-26T21:00:29.775Z,92798.38
2022-11-26T21:03:02.161Z,92796.72
2022-11-26T21:05:34.615Z,92800.84
2022-11-26T21:08:07.233Z,92795.69
2022-11-26T21:10:40.477Z,92797.25
2022-11-26T21:13:14.507Z,92801.19
2022-11-26T21:15:47.534Z,92802.16
2022-11-26T21:18:20.396Z,92799.03
2022-11-26T21:20:53.334Z,92795.53
2022-11-26T21:23:26.478Z,92796.88
2022-11-26T21:26:05.071Z,92799.44
2022-11-26T21:28:37.768Z,92797.09
2022-11-26T21:31:16.348Z,92811.25
2022-11-26T21:33:54.670Z,92798.53
2022-11-26T21:36:28.163Z,92799.88
2022-11-26T21:39:01.301Z,92790.06
2022-11-26T21:41:33.914Z,92779.19
2022-11-26T21:44:06.338Z,92789.72
2022-11-26T21:46:39.471Z,92798.09
2022-11-26T21:49:12.121Z,92801.09
2022-11-26T21:51:44.513Z,92805.47
2022-11-26T21:54:16.914Z,92806.59
2022-11-26T21:56:49.262Z,92799.31
2022-11-26T21:59:21.556Z,92802.78
2022-11-26T22:01:54.830Z,92809.69
2022-11-26T22:04:27.211Z,92808.25
2022-11-26T22:06:59.641Z,92813.53
2022-11-26T22:09:32.555Z,92791.81
2022-11-26T22:12:05.532Z,92806.72
2022-11-26T22:14:37.947Z,92811.84
2022-11-26T22:17:10.973Z,92808.81
2022-11-26T22:19:43.310Z,92812.19
2022-11-26T22:22:15.694Z,92811.28
2022-11-26T22:24:48.603Z,92810.63
2022-11-26T22:27:21.043Z,92806.50
2022-11-26T22:29:53.388Z,92814.22
2022-11-26T22:32:26.423Z,92819.56
2022-11-26T22:34:58.847Z,92821.84
2022-11-26T22:37:31.190Z,92825.25
2022-11-26T22:40:04.240Z,92824.22
2022-11-26T22:42:36.618Z,92811.28
2022-11-26T22:45:10.865Z,92811.63
2022-11-26T22:47:46.474Z,92811.56
2022-11-26T22:50:21.954Z,92813.44
2022-11-26T22:52:54.283Z,92821.63
2022-11-26T22:55:26.613Z,92808.31
2022-11-26T22:57:58.941Z,92807.56
2022-11-26T23:00:50.095Z,92807.75
2022-11-26T23:03:24.854Z,92803.50
2022-11-26T23:06:02.330Z,92810.47
2022-11-26T23:08:35.507Z,92806.66
2022-11-26T23:11:21.222Z,92811.59
2022-11-26T23:13:54.184Z,92816.28
2022-11-26T23:16:26.850Z,92807.22
2022-11-26T23:19:00.094Z,92805.53
2022-11-26T23:21:34.645Z,92818.06
2022-11-26T23:24:07.534Z,92811.78
2022-11-26T23:26:40.856Z,92818.84
2022-11-26T23:29:13.622Z,92811.78
2022-11-26T23:31:45.988Z,92823.53
2022-11-26T23:34:19.110Z,92826.88
2022-11-26T23:36:51.449Z,92828.09
2022-11-26T23:39:23.786Z,92825.28
2022-11-26T23:41:56.138Z,92826.59
2022-11-26T23:44:28.504Z,92808.28
2022-11-26T23:47:00.850Z,92818.78
2022-11-26T23:49:33.956Z,92814.97
2022-11-26T23:52:06.465Z,92809.59
2022-11-26T23:54:38.772Z,92812.25
2022-11-26T23:57:15.020Z,92808.69
2022-11-26T23:59:47.662Z,92808.91
